createdAt,value
2018-07-23T00:00:13.979Z,21.91
2018-07-23T00:01:13.968Z,21.94
2018-07-23T00:02:22.121Z,21.96
2018-07-23T00:03:22.169Z,21.88
2018-07-23T00:04:22.462Z,21.91
2018-07-23T00:05:13.923Z,21.94
2018-07-23T00:06:13.910Z,21.80
2018-07-23T00:07:13.898Z,21.75
2018-07-23T00:08:13.890Z,21.79
2018-07-23T00:09:13.948Z,21.80
2018-07-23T00:10:13.868Z,21.75
2018-07-23T00:11:21.973Z,21.77
2018-07-23T00:12:22.493Z,21.74
2018-07-23T00:13:21.981Z,21.80
2018-07-23T00:14:57.094Z,21.74
2018-07-23T00:15:13.810Z,21.77
2018-07-23T00:16:13.804Z,21.69
2018-07-23T00:17:13.796Z,21.68
2018-07-23T00:18:13.782Z,21.74
2018-07-23T00:19:13.839Z,21.74
2018-07-23T00:20:13.762Z,21.69
2018-07-23T00:21:13.754Z,21.79
2018-07-23T00:22:13.740Z,21.80
2018-07-23T00:23:13.729Z,21.80
2018-07-23T00:24:13.718Z,21.65
2018-07-23T00:25:14.092Z,21.65
2018-07-23T00:26:13.696Z,21.72
2018-07-23T00:27:13.684Z,21.68
2018-07-23T00:28:13.678Z,21.69
2018-07-23T00:29:13.662Z,21.65
2018-07-23T00:30:13.720Z,21.77
2018-07-23T00:31:13.640Z,21.62
2018-07-23T00:32:22.145Z,21.62
2018-07-23T00:33:13.621Z,21.59
2018-07-23T00:34:13.612Z,21.68
2018-07-23T00:35:13.665Z,21.61
2018-07-23T00:36:13.590Z,21.58
2018-07-23T00:37:13.577Z,21.47
2018-07-23T00:38:13.566Z,21.49
2018-07-23T00:39:13.555Z,21.50
2018-07-23T00:40:13.610Z,21.42
2018-07-23T00:41:13.532Z,21.49
2018-07-23T00:42:13.532Z,21.53
2018-07-23T00:43:13.512Z,21.49
2018-07-23T00:44:13.501Z,21.46
2018-07-23T00:45:13.557Z,21.44
2018-07-23T00:46:22.196Z,21.50
2018-07-23T00:47:13.471Z,21.43
2018-07-23T00:48:13.463Z,21.40
2018-07-23T00:49:13.449Z,21.50
2018-07-23T00:50:13.507Z,21.38
2018-07-23T00:51:13.427Z,21.49
2018-07-23T00:52:13.416Z,21.46
2018-07-23T00:53:13.405Z,21.40
2018-07-23T00:54:13.396Z,21.37
2018-07-23T00:55:13.449Z,21.37
2018-07-23T00:56:13.374Z,21.31
2018-07-23T00:57:13.361Z,21.32
2018-07-23T00:58:13.350Z,21.28
2018-07-23T00:59:13.338Z,21.21
2018-07-23T01:00:13.396Z,21.21
2018-07-23T01:01:13.316Z,21.19
2018-07-23T01:02:13.305Z,21.19
2018-07-23T01:03:13.294Z,21.17
2018-07-23T01:04:13.286Z,21.12
2018-07-23T01:05:13.338Z,21.13
2018-07-23T01:06:13.268Z,21.10
2018-07-23T01:07:14.080Z,21.06
2018-07-23T01:08:13.244Z,20.97
2018-07-23T01:09:13.233Z,20.99
2018-07-23T01:10:13.283Z,21.07
2018-07-23T01:11:13.210Z,20.98
2018-07-23T01:12:13.197Z,20.94
2018-07-23T01:13:13.186Z,20.92
2018-07-23T01:14:13.178Z,20.94
2018-07-23T01:15:13.230Z,20.94
2018-07-23T01:16:13.156Z,20.92
2018-07-23T01:17:13.145Z,20.94
2018-07-23T01:18:13.133Z,20.94
2018-07-23T01:19:13.122Z,20.79
2018-07-23T01:20:13.179Z,20.80
2018-07-23T01:21:13.101Z,20.79
2018-07-23T01:22:13.092Z,20.79
2018-07-23T01:23:13.081Z,20.74
2018-07-23T01:24:13.069Z,20.79
2018-07-23T01:25:13.123Z,20.82
2018-07-23T01:26:13.053Z,20.82
2018-07-23T01:27:13.034Z,20.79
2018-07-23T01:28:13.579Z,20.76
2018-07-23T01:29:13.012Z,20.77
2018-07-23T01:30:13.067Z,20.77
2018-07-23T01:31:12.998Z,20.70
2018-07-23T01:32:12.983Z,20.67
2018-07-23T01:33:12.972Z,20.58
2018-07-23T01:34:12.962Z,20.64
2018-07-23T01:35:13.014Z,20.67
2018-07-23T01:36:12.936Z,20.62
2018-07-23T01:37:12.926Z,20.64
2018-07-23T01:38:12.915Z,20.61
2018-07-23T01:39:12.904Z,20.67
2018-07-23T01:40:12.962Z,20.66
2018-07-23T01:41:12.884Z,20.59
2018-07-23T01:42:12.878Z,20.57
2018-07-23T01:43:12.862Z,20.57
2018-07-23T01:44:12.848Z,20.52
2018-07-23T01:45:12.914Z,20.51
2018-07-23T01:46:12.832Z,20.51
2018-07-23T01:47:12.823Z,20.51
2018-07-23T01:48:12.812Z,20.50
2018-07-23T01:49:13.578Z,20.50
2018-07-23T01:50:12.853Z,20.55
2018-07-23T01:51:12.776Z,20.54
2018-07-23T01:52:12.768Z,20.48
2018-07-23T01:53:12.755Z,20.54
2018-07-23T01:54:12.743Z,20.51
2018-07-23T01:55:12.801Z,20.42
2018-07-23T01:56:12.722Z,20.52
2018-07-23T01:57:12.713Z,20.39
2018-07-23T01:58:12.702Z,20.43
2018-07-23T01:59:12.691Z,20.35
2018-07-23T02:00:12.747Z,20.36
2018-07-23T02:01:12.669Z,20.33
2018-07-23T02:02:12.657Z,20.38
2018-07-23T02:03:20.755Z,20.33
2018-07-23T02:04:20.750Z,20.32
2018-07-23T02:05:21.263Z,20.28
2018-07-23T02:06:12.618Z,20.26
2018-07-23T02:07:20.787Z,20.28
2018-07-23T02:08:20.678Z,20.11
2018-07-23T02:09:20.687Z,20.16
2018-07-23T02:10:12.579Z,20.24
2018-07-23T02:11:20.763Z,20.16
2018-07-23T02:12:20.705Z,20.16
2018-07-23T02:13:20.063Z,20.16
2018-07-23T02:14:20.613Z,19.99
2018-07-23T02:15:20.690Z,20.05
2018-07-23T02:16:20.633Z,20.05
2018-07-23T02:17:20.633Z,20.03
2018-07-23T02:18:12.501Z,20.05
2018-07-23T02:19:12.472Z,20.02
2018-07-23T02:20:12.461Z,20.05
2018-07-23T02:21:12.514Z,20.01
2018-07-23T02:22:20.570Z,19.96
2018-07-23T02:23:20.585Z,19.99
2018-07-23T02:24:20.579Z,20.01
2018-07-23T02:25:20.489Z,20.01
2018-07-23T02:26:21.625Z,19.87
2018-07-23T02:27:20.493Z,19.86
2018-07-23T02:28:20.504Z,19.86
2018-07-23T02:29:20.513Z,19.88
2018-07-23T02:30:12.356Z,19.91
2018-07-23T02:31:12.409Z,19.94
2018-07-23T02:32:12.337Z,19.88
2018-07-23T02:33:12.329Z,19.91
2018-07-23T02:34:12.316Z,19.92
2018-07-23T02:35:12.303Z,19.83
2018-07-23T02:36:12.361Z,19.81
2018-07-23T02:37:12.282Z,19.86
2018-07-23T02:38:12.271Z,19.84
2018-07-23T02:39:12.260Z,19.91
2018-07-23T02:40:12.248Z,19.84
2018-07-23T02:41:12.304Z,19.84
2018-07-23T02:42:12.229Z,19.80
2018-07-23T02:43:12.218Z,19.88
2018-07-23T02:44:12.204Z,19.86
2018-07-23T02:45:12.199Z,19.73
2018-07-23T02:46:12.416Z,19.74
2018-07-23T02:47:12.192Z,19.68
2018-07-23T02:48:12.165Z,19.81
2018-07-23T02:49:12.150Z,19.71
2018-07-23T02:50:12.838Z,19.69
2018-07-23T02:51:12.196Z,19.71
2018-07-23T02:52:12.117Z,19.73
2018-07-23T02:53:12.108Z,19.66
2018-07-23T02:54:12.094Z,19.76
2018-07-23T02:55:12.083Z,19.68
2018-07-23T02:56:12.139Z,19.76
2018-07-23T02:57:12.063Z,19.73
2018-07-23T02:58:12.052Z,19.69
2018-07-23T02:59:12.041Z,19.74
2018-07-23T03:00:12.031Z,19.71
2018-07-23T03:01:12.083Z,19.65
2018-07-23T03:02:12.007Z,19.56
2018-07-23T03:03:11.997Z,19.59
2018-07-23T03:04:11.986Z,19.54
2018-07-23T03:05:11.977Z,19.62
2018-07-23T03:06:12.041Z,19.51
2018-07-23T03:07:11.956Z,19.54
2018-07-23T03:08:11.941Z,19.51
2018-07-23T03:09:11.933Z,19.51
2018-07-23T03:10:11.928Z,19.48
2018-07-23T03:11:12.416Z,19.43
2018-07-23T03:12:11.902Z,19.50
2018-07-23T03:13:11.890Z,19.44
2018-07-23T03:14:11.878Z,19.46
2018-07-23T03:15:11.867Z,19.44
2018-07-23T03:16:11.922Z,19.44
2018-07-23T03:17:11.850Z,19.41
2018-07-23T03:18:11.831Z,19.43
2018-07-23T03:19:11.823Z,19.40
2018-07-23T03:20:11.813Z,19.31
2018-07-23T03:21:11.876Z,19.40
2018-07-23T03:22:11.789Z,19.41
2018-07-23T03:23:11.781Z,19.32
2018-07-23T03:24:11.768Z,19.40
2018-07-23T03:25:11.759Z,19.29
2018-07-23T03:26:11.812Z,19.31
2018-07-23T03:27:11.737Z,19.32
2018-07-23T03:28:11.722Z,19.28
2018-07-23T03:29:11.717Z,19.28
2018-07-23T03:30:11.705Z,19.39
2018-07-23T03:31:11.756Z,19.33
2018-07-23T03:32:12.334Z,19.29
2018-07-23T03:33:11.668Z,19.25
2018-07-23T03:34:11.657Z,19.29
2018-07-23T03:35:11.649Z,19.28
2018-07-23T03:36:11.709Z,19.33
2018-07-23T03:37:11.623Z,19.29
2018-07-23T03:38:11.613Z,19.29
2018-07-23T03:39:11.601Z,19.33
2018-07-23T03:40:11.594Z,19.28
2018-07-23T03:41:11.648Z,19.32
2018-07-23T03:42:11.573Z,19.22
2018-07-23T03:43:11.557Z,19.22
2018-07-23T03:44:11.549Z,19.29
2018-07-23T03:45:11.538Z,19.18
2018-07-23T03:46:11.601Z,19.19
2018-07-23T03:47:11.516Z,19.23
2018-07-23T03:48:11.509Z,19.31
2018-07-23T03:49:11.496Z,19.21
2018-07-23T03:50:11.483Z,19.28
2018-07-23T03:51:11.540Z,19.21
2018-07-23T03:52:11.529Z,19.33
2018-07-23T03:53:12.333Z,19.26
2018-07-23T03:54:19.628Z,19.28
2018-07-23T03:55:19.531Z,19.31
2018-07-23T03:56:19.607Z,19.25
2018-07-23T03:57:19.540Z,19.25
2018-07-23T03:58:19.551Z,19.28
2018-07-23T03:59:12.006Z,19.25
2018-07-23T04:00:12.006Z,19.26
2018-07-23T04:01:11.364Z,19.21
2018-07-23T04:02:11.422Z,19.23
2018-07-23T04:03:19.475Z,19.26
2018-07-23T04:04:19.501Z,19.19
2018-07-23T04:05:19.504Z,19.19
2018-07-23T04:06:22.220Z,19.25
2018-07-23T04:07:19.409Z,19.21
2018-07-23T04:08:11.291Z,19.16
2018-07-23T04:09:11.275Z,19.21
2018-07-23T04:10:11.265Z,19.19
2018-07-23T04:11:11.259Z,19.16
2018-07-23T04:12:11.311Z,19.22
2018-07-23T04:13:11.235Z,19.31
2018-07-23T04:14:11.223Z,19.25
2018-07-23T04:15:11.212Z,19.23
2018-07-23T04:16:11.202Z,19.21
2018-07-23T04:17:11.270Z,19.28
2018-07-23T04:18:12.167Z,19.28
2018-07-23T04:19:11.173Z,19.22
2018-07-23T04:20:11.159Z,19.25
2018-07-23T04:21:11.148Z,19.26
2018-07-23T04:22:11.214Z,19.22
2018-07-23T04:23:11.129Z,19.23
2018-07-23T04:24:11.118Z,19.26
2018-07-23T04:25:11.105Z,19.26
2018-07-23T04:26:11.093Z,19.31
2018-07-23T04:27:11.243Z,19.31
2018-07-23T04:28:11.073Z,19.33
2018-07-23T04:29:11.063Z,19.39
2018-07-23T04:30:11.051Z,19.40
2018-07-23T04:31:11.041Z,19.40
2018-07-23T04:32:11.097Z,19.41
2018-07-23T04:33:11.018Z,19.37
2018-07-23T04:34:11.020Z,19.41
2018-07-23T04:35:10.997Z,19.32
2018-07-23T04:36:10.987Z,19.46
2018-07-23T04:37:11.040Z,19.43
2018-07-23T04:38:10.969Z,19.46
2018-07-23T04:39:11.667Z,19.44
2018-07-23T04:40:10.942Z,19.47
2018-07-23T04:41:10.939Z,19.44
2018-07-23T04:42:10.985Z,19.54
2018-07-23T04:43:10.907Z,19.55
2018-07-23T04:44:10.939Z,19.63
2018-07-23T04:45:10.976Z,19.62
2018-07-23T04:46:10.898Z,19.62
2018-07-23T04:47:10.940Z,19.66
2018-07-23T04:48:10.855Z,19.76
2018-07-23T04:49:10.847Z,19.71
2018-07-23T04:50:10.865Z,19.69
2018-07-23T04:51:10.824Z,19.68
2018-07-23T04:52:10.874Z,19.83
2018-07-23T04:53:10.805Z,19.84
2018-07-23T04:54:10.795Z,19.91
2018-07-23T04:55:10.779Z,19.88
2018-07-23T04:56:10.766Z,19.94
2018-07-23T04:57:10.824Z,19.87
2018-07-23T04:58:10.744Z,19.83
2018-07-23T04:59:10.737Z,19.88
2018-07-23T05:00:11.671Z,19.86
2018-07-23T05:01:10.714Z,19.99
2018-07-23T05:02:10.771Z,20.01
2018-07-23T05:03:10.692Z,19.92
2018-07-23T05:04:10.681Z,19.94
2018-07-23T05:05:10.671Z,19.94
2018-07-23T05:06:10.658Z,20.05
2018-07-23T05:07:10.725Z,19.96
2018-07-23T05:08:10.639Z,20.01
2018-07-23T05:09:10.625Z,20.05
2018-07-23T05:10:10.617Z,20.02
2018-07-23T05:11:10.608Z,20.08
2018-07-23T05:12:10.661Z,20.11
2018-07-23T05:13:10.587Z,20.10
2018-07-23T05:14:10.578Z,20.10
2018-07-23T05:15:10.567Z,20.10
2018-07-23T05:16:10.553Z,20.05
2018-07-23T05:17:10.611Z,20.08
2018-07-23T05:18:10.528Z,19.98
2018-07-23T05:19:10.517Z,20.05
2018-07-23T05:20:10.513Z,20.17
2018-07-23T05:21:11.165Z,20.17
2018-07-23T05:22:10.555Z,20.14
2018-07-23T05:23:10.543Z,20.10
2018-07-23T05:24:10.473Z,20.16
2018-07-23T05:25:10.454Z,20.23
2018-07-23T05:26:11.194Z,20.26
2018-07-23T05:27:10.434Z,20.28
2018-07-23T05:28:10.502Z,20.26
2018-07-23T05:29:10.410Z,20.28
2018-07-23T05:30:10.401Z,20.29
2018-07-23T05:31:10.390Z,20.36
2018-07-23T05:32:10.382Z,20.36
2018-07-23T05:33:10.437Z,20.33
2018-07-23T05:34:10.354Z,20.31
2018-07-23T05:35:10.353Z,20.23
2018-07-23T05:36:10.359Z,20.26
2018-07-23T05:37:10.326Z,20.32
2018-07-23T05:38:10.382Z,20.28
2018-07-23T05:39:10.301Z,20.23
2018-07-23T05:40:10.296Z,20.43
2018-07-23T05:41:10.280Z,20.35
2018-07-23T05:42:13.162Z,20.39
2018-07-23T05:43:10.334Z,20.50
2018-07-23T05:44:10.253Z,20.48
2018-07-23T05:45:10.250Z,20.54
2018-07-23T05:46:10.250Z,20.55
2018-07-23T05:47:10.215Z,20.48
2018-07-23T05:48:10.270Z,20.54
2018-07-23T05:49:10.195Z,20.59
2018-07-23T05:50:10.185Z,20.57
2018-07-23T05:51:10.174Z,20.64
2018-07-23T05:52:10.170Z,20.69
2018-07-23T05:53:10.220Z,20.74
2018-07-23T05:54:10.141Z,20.92
2018-07-23T05:55:10.138Z,20.97
2018-07-23T05:56:10.126Z,20.95
2018-07-23T05:57:10.111Z,21.01
2018-07-23T05:58:10.162Z,21.12
2018-07-23T05:59:10.102Z,21.10
2018-07-23T06:00:10.077Z,21.22
2018-07-23T06:01:10.063Z,21.24
2018-07-23T06:02:10.054Z,21.35
2018-07-23T06:03:10.239Z,21.38
2018-07-23T06:04:10.040Z,21.43
2018-07-23T06:05:10.021Z,21.62
2018-07-23T06:06:10.034Z,21.58
2018-07-23T06:07:09.999Z,21.74
2018-07-23T06:08:10.054Z,21.79
2018-07-23T06:09:09.980Z,21.90
2018-07-23T06:10:09.971Z,21.90
2018-07-23T06:11:09.958Z,22.02
2018-07-23T06:12:09.952Z,22.05
2018-07-23T06:13:10.065Z,22.17
2018-07-23T06:14:09.935Z,22.17
2018-07-23T06:15:09.929Z,22.25
2018-07-23T06:16:09.910Z,22.25
2018-07-23T06:17:09.897Z,22.39
2018-07-23T06:18:09.960Z,22.42
2018-07-23T06:19:09.872Z,22.47
2018-07-23T06:20:09.861Z,22.57
2018-07-23T06:21:09.852Z,22.64
2018-07-23T06:22:09.839Z,22.73
2018-07-23T06:23:09.907Z,22.77
2018-07-23T06:24:10.659Z,22.86
2018-07-23T06:25:09.810Z,22.97
2018-07-23T06:26:09.797Z,23.01
2018-07-23T06:27:09.787Z,23.01
2018-07-23T06:28:10.236Z,23.15
2018-07-23T06:29:09.765Z,23.22
2018-07-23T06:30:09.831Z,23.28
2018-07-23T06:31:09.748Z,23.43
2018-07-23T06:32:09.732Z,23.47
2018-07-23T06:33:09.788Z,23.57
2018-07-23T06:34:09.730Z,23.70
2018-07-23T06:35:09.702Z,23.83
2018-07-23T06:36:09.705Z,23.90
2018-07-23T06:37:09.681Z,23.90
2018-07-23T06:38:09.733Z,23.94
2018-07-23T06:39:09.656Z,23.91
2018-07-23T06:40:09.645Z,23.97
2018-07-23T06:41:09.652Z,24.10
2018-07-23T06:42:09.628Z,24.25
2018-07-23T06:43:09.687Z,24.31
2018-07-23T06:44:09.629Z,24.40
2018-07-23T06:45:10.170Z,24.55
2018-07-23T06:46:09.605Z,24.77
2018-07-23T06:47:09.583Z,24.77
2018-07-23T06:48:09.567Z,24.78
2018-07-23T06:49:09.627Z,24.85
2018-07-23T06:50:09.544Z,24.91
2018-07-23T06:51:09.531Z,25.00
2018-07-23T06:52:09.528Z,25.06
2018-07-23T06:53:09.515Z,25.24
2018-07-23T06:54:09.629Z,25.18
2018-07-23T06:55:09.490Z,25.27
2018-07-23T06:56:09.478Z,25.33
2018-07-23T06:57:09.467Z,25.33
2018-07-23T06:58:09.459Z,25.39
2018-07-23T06:59:09.516Z,25.50
2018-07-23T07:00:09.436Z,25.60
2018-07-23T07:01:09.426Z,25.77
2018-07-23T07:02:09.412Z,25.77
2018-07-23T07:03:09.458Z,25.80
2018-07-23T07:04:09.488Z,26.02
2018-07-23T07:05:09.387Z,26.07
2018-07-23T07:06:10.160Z,26.26
2018-07-23T07:07:09.386Z,26.35
2018-07-23T07:08:09.361Z,26.48
2018-07-23T07:09:09.409Z,26.45
2018-07-23T07:10:09.331Z,26.58
2018-07-23T07:11:09.323Z,26.62
2018-07-23T07:12:09.312Z,26.75
2018-07-23T07:13:09.317Z,26.66
2018-07-23T07:14:09.355Z,26.80
2018-07-23T07:15:09.296Z,26.88
2018-07-23T07:16:09.275Z,27.04
2018-07-23T07:17:09.272Z,27.07
2018-07-23T07:18:09.690Z,27.25
2018-07-23T07:19:09.311Z,27.29
2018-07-23T07:20:10.959Z,27.43
2018-07-23T07:21:09.223Z,27.54
2018-07-23T07:22:09.211Z,27.62
2018-07-23T07:23:09.230Z,27.57
2018-07-23T07:24:09.678Z,27.82
2018-07-23T07:25:09.388Z,27.84
2018-07-23T07:26:09.170Z,27.96
2018-07-23T07:27:09.687Z,28.09
2018-07-23T07:28:09.151Z,28.29
2018-07-23T07:29:09.206Z,28.43
2018-07-23T07:30:09.132Z,28.21
2018-07-23T07:31:09.123Z,28.12
2018-07-23T07:32:09.112Z,28.22
2018-07-23T07:33:09.111Z,28.21
2018-07-23T07:34:09.156Z,28.17
2018-07-23T07:35:09.081Z,28.11
2018-07-23T07:36:09.139Z,27.97
2018-07-23T07:37:09.082Z,27.90
2018-07-23T07:38:09.110Z,27.77
2018-07-23T07:39:09.114Z,27.74
2018-07-23T07:40:09.033Z,27.50
2018-07-23T07:41:16.634Z,27.13
2018-07-23T07:42:17.213Z,26.91
2018-07-23T07:43:09.009Z,27.00
2018-07-23T07:44:09.072Z,27.02
2018-07-23T07:45:08.979Z,27.02
2018-07-23T07:46:08.968Z,27.13
2018-07-23T07:47:08.960Z,27.18
2018-07-23T07:48:08.975Z,27.22
2018-07-23T07:49:17.160Z,27.27
2018-07-23T07:50:17.576Z,27.29
2018-07-23T07:51:17.083Z,27.29
2018-07-23T07:52:08.917Z,27.50
2018-07-23T07:53:08.898Z,27.51
2018-07-23T07:54:08.972Z,27.50
2018-07-23T07:55:08.876Z,27.57
2018-07-23T07:56:08.868Z,27.67
2018-07-23T07:57:08.920Z,27.67
2018-07-23T07:58:08.851Z,27.66
2018-07-23T07:59:08.914Z,27.60
2018-07-23T08:00:08.826Z,27.66
2018-07-23T08:01:08.859Z,27.74
2018-07-23T08:02:08.804Z,27.70
2018-07-23T08:03:08.796Z,27.82
2018-07-23T08:04:08.849Z,27.72
2018-07-23T08:05:08.771Z,27.75
2018-07-23T08:06:08.763Z,27.79
2018-07-23T08:07:08.803Z,27.90
2018-07-23T08:08:08.743Z,27.72
2018-07-23T08:09:08.807Z,27.39
2018-07-23T08:10:08.721Z,27.17
2018-07-23T08:11:08.739Z,27.18
2018-07-23T08:12:09.354Z,27.19
2018-07-23T08:13:08.688Z,27.32
2018-07-23T08:14:08.749Z,27.37
2018-07-23T08:15:08.669Z,27.66
2018-07-23T08:16:08.666Z,27.69
2018-07-23T08:17:08.649Z,27.82
2018-07-23T08:18:08.639Z,27.87
2018-07-23T08:19:08.699Z,28.02
2018-07-23T08:20:08.624Z,27.94
2018-07-23T08:21:08.615Z,28.03
2018-07-23T08:22:08.596Z,28.09
2018-07-23T08:23:08.591Z,28.21
2018-07-23T08:24:08.648Z,28.22
2018-07-23T08:25:08.638Z,28.22
2018-07-23T08:26:08.563Z,28.33
2018-07-23T08:27:08.547Z,28.43
2018-07-23T08:28:08.538Z,28.58
2018-07-23T08:29:08.530Z,28.71
2018-07-23T08:30:08.582Z,28.78
2018-07-23T08:31:08.508Z,28.95
2018-07-23T08:32:08.616Z,29.04
2018-07-23T08:33:09.349Z,29.19
2018-07-23T08:34:08.478Z,29.26
2018-07-23T08:35:08.530Z,29.26
2018-07-23T08:36:08.461Z,29.28
2018-07-23T08:37:08.499Z,29.43
2018-07-23T08:38:08.435Z,29.49
2018-07-23T08:39:08.427Z,29.53
2018-07-23T08:40:08.479Z,29.65
2018-07-23T08:41:08.402Z,29.73
2018-07-23T08:42:08.393Z,29.82
2018-07-23T08:43:08.427Z,29.85
2018-07-23T08:44:08.374Z,30.00
2018-07-23T08:45:08.430Z,29.95
2018-07-23T08:46:08.357Z,30.00
2018-07-23T08:47:08.344Z,30.00
2018-07-23T08:48:08.333Z,30.05
2018-07-23T08:49:08.321Z,30.10
2018-07-23T08:50:08.385Z,30.17
2018-07-23T08:51:08.303Z,30.08
2018-07-23T08:52:08.294Z,30.13
2018-07-23T08:53:08.281Z,29.87
2018-07-23T08:54:08.852Z,30.02
2018-07-23T08:55:08.326Z,30.57
2018-07-23T08:56:08.293Z,30.97
2018-07-23T08:57:08.247Z,31.81
2018-07-23T08:58:08.233Z,32.01
2018-07-23T08:59:08.222Z,32.35
2018-07-23T09:00:08.279Z,32.47
2018-07-23T09:01:08.202Z,32.79
2018-07-23T09:02:08.191Z,33.26
2018-07-23T09:03:08.188Z,33.63
2018-07-23T09:04:08.177Z,33.87
2018-07-23T09:05:08.232Z,33.94
2018-07-23T09:06:08.178Z,33.94
2018-07-23T09:07:08.147Z,33.86
2018-07-23T09:08:08.138Z,34.19
2018-07-23T09:09:08.136Z,34.21
2018-07-23T09:10:08.186Z,34.28
2018-07-23T09:11:08.119Z,34.39
2018-07-23T09:12:08.105Z,34.58
2018-07-23T09:13:08.104Z,34.82
2018-07-23T09:14:08.085Z,35.03
2018-07-23T09:15:08.430Z,35.15
2018-07-23T09:16:08.066Z,34.64
2018-07-23T09:17:08.095Z,34.62
2018-07-23T09:18:08.052Z,34.70
2018-07-23T09:19:08.041Z,34.87
2018-07-23T09:20:08.101Z,34.92
2018-07-23T09:21:08.030Z,35.03
2018-07-23T09:22:08.070Z,35.34
2018-07-23T09:23:08.013Z,35.55
2018-07-23T09:24:08.001Z,35.84
2018-07-23T09:25:08.057Z,36.13
2018-07-23T09:26:07.987Z,36.38
2018-07-23T09:27:07.978Z,36.59
2018-07-23T09:28:07.968Z,36.73
2018-07-23T09:29:07.959Z,36.91
2018-07-23T09:30:08.018Z,36.95
2018-07-23T09:31:07.962Z,36.93
2018-07-23T09:32:07.934Z,36.91
2018-07-23T09:33:07.926Z,36.94
2018-07-23T09:34:07.920Z,36.93
2018-07-23T09:35:07.975Z,36.91
2018-07-23T09:36:08.856Z,37.06
2018-07-23T09:37:07.920Z,37.28
2018-07-23T09:38:07.887Z,37.31
2018-07-23T09:39:07.883Z,37.31
2018-07-23T09:40:07.938Z,37.12
2018-07-23T09:41:07.866Z,37.02
2018-07-23T09:42:07.860Z,37.25
2018-07-23T09:43:07.849Z,37.34
2018-07-23T09:44:07.844Z,37.60
2018-07-23T09:45:07.939Z,37.85
2018-07-23T09:46:07.858Z,38.09
2018-07-23T09:47:07.843Z,38.13
2018-07-23T09:48:07.811Z,38.13
2018-07-23T09:49:08.348Z,38.20
2018-07-23T09:50:07.873Z,38.20
2018-07-23T09:51:07.790Z,38.26
2018-07-23T09:52:07.784Z,38.49
2018-07-23T09:53:07.773Z,38.37
2018-07-23T09:54:07.767Z,38.59
2018-07-23T09:55:07.831Z,38.60
2018-07-23T09:56:07.756Z,38.75
2018-07-23T09:57:08.346Z,38.90
2018-07-23T09:58:07.758Z,38.37
2018-07-23T09:59:07.734Z,38.00
2018-07-23T10:00:07.794Z,37.75
2018-07-23T10:01:07.717Z,37.72
2018-07-23T10:02:07.712Z,36.76
2018-07-23T10:03:07.734Z,35.94
2018-07-23T10:04:07.801Z,35.36
2018-07-23T10:05:07.757Z,35.18
2018-07-23T10:06:07.682Z,34.87
2018-07-23T10:07:07.669Z,34.72
2018-07-23T10:08:07.661Z,34.81
2018-07-23T10:09:07.654Z,35.78
2018-07-23T10:10:07.646Z,35.81
2018-07-23T10:11:07.721Z,35.45
2018-07-23T10:12:08.342Z,35.59
2018-07-23T10:13:07.661Z,35.15
2018-07-23T10:14:07.612Z,36.09
2018-07-23T10:15:07.601Z,37.09
2018-07-23T10:16:07.690Z,37.13
2018-07-23T10:17:07.588Z,36.73
2018-07-23T10:18:08.342Z,36.72
2018-07-23T10:19:07.570Z,37.44
2018-07-23T10:20:07.565Z,38.07
2018-07-23T10:21:07.620Z,38.61
2018-07-23T10:22:07.580Z,39.11
2018-07-23T10:23:07.537Z,39.64
2018-07-23T10:24:07.529Z,39.77
2018-07-23T10:25:07.543Z,39.67
2018-07-23T10:26:07.580Z,39.55
2018-07-23T10:27:07.511Z,39.51
2018-07-23T10:28:07.519Z,39.77
2018-07-23T10:29:07.491Z,39.86
2018-07-23T10:30:07.483Z,39.81
2018-07-23T10:31:07.549Z,39.98
2018-07-23T10:32:07.477Z,38.50
2018-07-23T10:33:07.461Z,37.44
2018-07-23T10:34:07.462Z,37.51
2018-07-23T10:35:07.495Z,37.05
2018-07-23T10:36:07.505Z,36.46
2018-07-23T10:37:07.433Z,35.99
2018-07-23T10:38:07.423Z,35.56
2018-07-23T10:39:08.338Z,35.47
2018-07-23T10:40:07.431Z,35.33
2018-07-23T10:41:07.522Z,35.19
2018-07-23T10:42:07.443Z,35.03
2018-07-23T10:43:07.379Z,35.02
2018-07-23T10:44:07.370Z,35.18
2018-07-23T10:45:07.373Z,36.28
2018-07-23T10:46:07.420Z,37.24
2018-07-23T10:47:07.349Z,37.75
2018-07-23T10:48:07.335Z,38.56
2018-07-23T10:49:07.329Z,39.18
2018-07-23T10:50:07.318Z,39.55
2018-07-23T10:51:07.421Z,39.09
2018-07-23T10:52:07.309Z,38.63
2018-07-23T10:53:07.293Z,38.34
2018-07-23T10:54:07.290Z,38.38
2018-07-23T10:55:07.276Z,38.03
2018-07-23T10:56:07.336Z,37.39
2018-07-23T10:57:07.270Z,36.99
2018-07-23T10:58:07.251Z,37.76
2018-07-23T10:59:07.242Z,38.71
2018-07-23T11:00:07.838Z,38.95
2018-07-23T11:01:07.289Z,38.32
2018-07-23T11:02:07.215Z,37.74
2018-07-23T11:03:07.208Z,37.13
2018-07-23T11:04:07.235Z,36.57
2018-07-23T11:05:07.189Z,36.09
2018-07-23T11:06:07.247Z,35.85
2018-07-23T11:07:07.180Z,35.60
2018-07-23T11:08:07.167Z,35.26
2018-07-23T11:09:07.161Z,35.29
2018-07-23T11:10:07.149Z,35.77
2018-07-23T11:11:07.840Z,35.41
2018-07-23T11:12:07.131Z,35.23
2018-07-23T11:13:07.116Z,35.15
2018-07-23T11:14:07.177Z,34.94
2018-07-23T11:15:07.121Z,34.62
2018-07-23T11:16:07.155Z,34.42
2018-07-23T11:17:07.086Z,34.21
2018-07-23T11:18:07.069Z,34.12
2018-07-23T11:19:07.069Z,33.91
2018-07-23T11:20:07.069Z,33.90
2018-07-23T11:21:07.413Z,33.75
2018-07-23T11:22:07.054Z,33.72
2018-07-23T11:23:07.062Z,33.95
2018-07-23T11:24:07.076Z,34.17
2018-07-23T11:25:38.416Z,34.09
2018-07-23T11:26:07.065Z,34.56
2018-07-23T11:27:15.100Z,35.45
2018-07-23T11:28:15.095Z,36.50
2018-07-23T11:29:15.105Z,37.57
2018-07-23T11:30:15.104Z,38.38
2018-07-23T11:31:07.019Z,38.95
2018-07-23T11:32:06.959Z,39.47
2018-07-23T11:33:06.933Z,40.08
2018-07-23T11:34:06.937Z,40.53
2018-07-23T11:35:15.041Z,40.94
2018-07-23T11:36:15.618Z,40.88
2018-07-23T11:37:06.897Z,40.72
2018-07-23T11:38:06.889Z,40.03
2018-07-23T11:39:06.883Z,40.70
2018-07-23T11:40:06.873Z,41.28
2018-07-23T11:41:06.929Z,41.70
2018-07-23T11:42:06.871Z,42.20
2018-07-23T11:43:06.849Z,42.70
2018-07-23T11:44:06.841Z,42.98
2018-07-23T11:45:06.838Z,42.09
2018-07-23T11:46:06.911Z,40.91
2018-07-23T11:47:06.868Z,40.48
2018-07-23T11:48:06.807Z,40.80
2018-07-23T11:49:06.887Z,40.45
2018-07-23T11:50:06.899Z,40.31
2018-07-23T11:51:06.896Z,39.70
2018-07-23T11:52:14.353Z,39.23
2018-07-23T11:53:06.773Z,39.03
2018-07-23T11:54:06.756Z,38.69
2018-07-23T11:55:06.751Z,38.54
2018-07-23T11:56:06.824Z,38.15
2018-07-23T11:57:07.569Z,37.72
2018-07-23T11:58:06.723Z,37.50
2018-07-23T11:59:06.720Z,37.31
2018-07-23T12:00:06.709Z,36.98
2018-07-23T12:01:06.716Z,36.72
2018-07-23T12:02:06.753Z,36.51
2018-07-23T12:03:06.684Z,36.39
2018-07-23T12:04:10.408Z,36.09
2018-07-23T12:05:06.659Z,35.93
2018-07-23T12:06:06.716Z,35.74
2018-07-23T12:07:06.710Z,35.55
2018-07-23T12:08:06.637Z,35.41
2018-07-23T12:09:06.623Z,35.34
2018-07-23T12:10:06.633Z,35.36
2018-07-23T12:11:06.603Z,35.25
2018-07-23T12:12:06.656Z,36.59
2018-07-23T12:13:06.584Z,37.72
2018-07-23T12:14:06.575Z,38.52
2018-07-23T12:15:06.564Z,39.18
2018-07-23T12:16:06.561Z,39.40
2018-07-23T12:17:06.616Z,39.96
2018-07-23T12:18:07.045Z,40.55
2018-07-23T12:19:06.533Z,40.69
2018-07-23T12:20:06.559Z,41.21
2018-07-23T12:21:06.530Z,41.55
2018-07-23T12:22:06.571Z,41.91
2018-07-23T12:23:06.505Z,42.18
2018-07-23T12:24:06.494Z,42.37
2018-07-23T12:25:06.485Z,42.58
2018-07-23T12:26:06.509Z,42.86
2018-07-23T12:27:06.529Z,42.87
2018-07-23T12:28:06.460Z,41.62
2018-07-23T12:29:06.476Z,40.69
2018-07-23T12:30:07.048Z,40.04
2018-07-23T12:31:06.440Z,39.48
2018-07-23T12:32:06.492Z,38.98
2018-07-23T12:33:06.424Z,38.56
2018-07-23T12:34:06.415Z,38.18
2018-07-23T12:35:06.404Z,38.04
2018-07-23T12:36:06.411Z,37.70
2018-07-23T12:37:06.451Z,37.34
2018-07-23T12:38:06.378Z,37.24
2018-07-23T12:39:07.043Z,36.91
2018-07-23T12:40:06.430Z,36.68
2018-07-23T12:41:06.350Z,36.23
2018-07-23T12:42:06.414Z,36.07
2018-07-23T12:43:06.337Z,35.84
2018-07-23T12:44:06.320Z,35.63
2018-07-23T12:45:06.312Z,35.33
2018-07-23T12:46:06.306Z,35.10
2018-07-23T12:47:06.409Z,34.75
2018-07-23T12:48:06.284Z,34.69
2018-07-23T12:49:06.276Z,34.61
2018-07-23T12:50:06.266Z,34.65
2018-07-23T12:51:06.262Z,34.65
2018-07-23T12:52:06.303Z,34.59